createdAt,value
2022-11-09T00:01:52.583Z,19.97
2022-11-09T00:03:56.861Z,20.20
2022-11-09T00:06:02.146Z,20.17
2022-11-09T00:08:10.403Z,19.07
2022-11-09T00:10:13.388Z,18.20
2022-11-09T00:12:16.738Z,18.90
2022-11-09T00:14:21.982Z,18.20
2022-11-09T00:16:25.687Z,19.93
2022-11-09T00:18:28.843Z,18.40
2022-11-09T00:20:34.501Z,19.23
2022-11-09T00:22:38.063Z,17.67
2022-11-09T00:24:42.399Z,17.93
2022-11-09T00:26:45.200Z,19.37
2022-11-09T00:28:48.207Z,17.97
2022-11-09T00:30:51.089Z,18.40
2022-11-09T00:32:54.118Z,17.47
2022-11-09T00:34:57.626Z,19.40
2022-11-09T00:37:00.432Z,18.87
2022-11-09T00:39:03.280Z,18.53
2022-11-09T00:41:08.250Z,17.50
2022-11-09T00:43:11.189Z,17.47
2022-11-09T00:45:14.583Z,18.13
2022-11-09T00:47:17.483Z,17.17
2022-11-09T00:49:20.865Z,17.90
2022-11-09T00:51:23.849Z,17.40
2022-11-09T00:53:27.922Z,17.50
2022-11-09T00:55:31.110Z,18.17
2022-11-09T00:57:35.348Z,16.70
2022-11-09T00:59:38.432Z,17.50
2022-11-09T01:01:43.608Z,17.97
2022-11-09T01:03:47.352Z,17.80
2022-11-09T01:05:51.700Z,15.97
2022-11-09T01:07:54.922Z,17.17
2022-11-09T01:09:58.475Z,17.57
2022-11-09T01:12:01.771Z,17.80
2022-11-09T01:14:06.482Z,16.83
2022-11-09T01:16:11.113Z,17.87
2022-11-09T01:18:16.505Z,17.07
2022-11-09T01:20:20.958Z,18.37
2022-11-09T01:22:23.782Z,16.37
2022-11-09T01:24:27.095Z,17.50
2022-11-09T01:26:29.975Z,18.23
2022-11-09T01:28:32.798Z,17.20
2022-11-09T01:30:37.920Z,16.90
2022-11-09T01:32:41.251Z,16.27
2022-11-09T01:34:46.108Z,17.40
2022-11-09T01:36:51.198Z,17.43
2022-11-09T01:38:54.095Z,16.17
2022-11-09T01:40:57.284Z,16.73
2022-11-09T01:43:00.944Z,17.13
2022-11-09T01:45:21.223Z,16.50
2022-11-09T01:47:26.020Z,17.27
2022-11-09T01:49:37.694Z,17.27
2022-11-09T01:51:42.890Z,16.60
2022-11-09T01:53:50.076Z,16.63
2022-11-09T01:55:56.683Z,16.50
2022-11-09T01:58:03.395Z,15.60
2022-11-09T02:00:09.093Z,16.30
2022-11-09T02:02:14.632Z,16.97
2022-11-09T02:04:23.814Z,16.37
2022-11-09T02:06:28.027Z,16.03
2022-11-09T02:08:30.864Z,16.37
2022-11-09T02:10:35.195Z,17.27
2022-11-09T02:12:38.561Z,16.93
2022-11-09T02:14:41.183Z,15.80
2022-11-09T02:16:43.812Z,15.93
2022-11-09T02:18:53.179Z,16.83
2022-11-09T02:21:00.975Z,16.67
2022-11-09T02:23:03.665Z,16.90
2022-11-09T02:25:06.977Z,16.00
2022-11-09T02:27:10.801Z,16.40
2022-11-09T02:29:15.767Z,16.30
2022-11-09T02:31:18.417Z,15.33
2022-11-09T02:33:22.689Z,16.23
2022-11-09T02:35:25.861Z,15.83
2022-11-09T02:37:30.793Z,15.90
2022-11-09T02:39:33.465Z,16.53
2022-11-09T02:41:36.321Z,15.27
2022-11-09T02:43:39.281Z,17.43
2022-11-09T02:45:41.953Z,16.70
2022-11-09T02:47:44.629Z,16.13
2022-11-09T02:49:47.275Z,16.10
2022-11-09T02:51:51.515Z,13.83
2022-11-09T02:53:55.504Z,15.73
2022-11-09T02:55:58.109Z,16.10
2022-11-09T02:58:01.695Z,15.60
2022-11-09T03:00:06.243Z,15.20
2022-11-09T03:02:09.655Z,15.60
2022-11-09T03:04:12.288Z,16.60
2022-11-09T03:06:15.157Z,15.07
2022-11-09T03:08:18.885Z,16.63
2022-11-09T03:10:22.805Z,16.77
2022-11-09T03:12:31.503Z,14.97
2022-11-09T03:14:34.375Z,16.53
2022-11-09T03:16:37.887Z,15.90
2022-11-09T03:18:40.590Z,15.80
2022-11-09T03:20:43.273Z,15.57
2022-11-09T03:22:45.936Z,16.00
2022-11-09T03:24:49.048Z,16.00
2022-11-09T03:26:52.989Z,15.70
2022-11-09T03:28:55.674Z,16.60
2022-11-09T03:30:58.337Z,16.37
2022-11-09T03:33:01.440Z,16.60
2022-11-09T03:35:04.099Z,15.67
2022-11-09T03:37:06.746Z,14.67
2022-11-09T03:39:09.443Z,15.80
2022-11-09T03:41:12.533Z,15.20
2022-11-09T03:43:16.606Z,14.80
2022-11-09T03:45:19.364Z,14.87
2022-11-09T03:47:22.038Z,15.43
2022-11-09T03:49:25.126Z,15.47
2022-11-09T03:51:27.804Z,15.33
2022-11-09T03:53:30.416Z,15.67
2022-11-09T03:55:33.078Z,15.73
2022-11-09T03:57:36.182Z,14.63
2022-11-09T03:59:40.143Z,15.43
2022-11-09T04:01:42.930Z,14.60
2022-11-09T04:03:45.583Z,15.10
2022-11-09T04:05:48.574Z,14.73
2022-11-09T04:07:52.208Z,14.77
2022-11-09T04:09:54.844Z,14.27
2022-11-09T04:11:57.518Z,15.13
2022-11-09T04:14:00.582Z,15.27
2022-11-09T04:16:04.599Z,13.53
2022-11-09T04:18:07.297Z,14.13
2022-11-09T04:20:12.945Z,15.27
2022-11-09T04:22:15.896Z,14.77
2022-11-09T04:24:18.541Z,14.90
2022-11-09T04:26:21.240Z,14.47
2022-11-09T04:28:24.844Z,14.93
2022-11-09T04:30:28.901Z,14.53
2022-11-09T04:32:33.385Z,14.93
2022-11-09T04:34:36.106Z,13.77
2022-11-09T04:36:40.171Z,13.97
2022-11-09T04:38:42.914Z,14.47
2022-11-09T04:40:45.592Z,13.70
2022-11-09T04:42:48.264Z,13.70
2022-11-09T04:44:51.506Z,14.00
2022-11-09T04:46:54.220Z,13.87
2022-11-09T04:48:58.195Z,14.17
2022-11-09T04:51:02.270Z,14.83
2022-11-09T04:53:08.129Z,14.60
2022-11-09T04:55:10.876Z,14.93
2022-11-09T04:57:13.499Z,14.77
2022-11-09T04:59:16.152Z,14.77
2022-11-09T05:01:19.246Z,14.67
2022-11-09T05:03:22.442Z,14.00
2022-11-09T05:05:26.636Z,14.80
2022-11-09T05:07:29.286Z,14.00
2022-11-09T05:09:32.433Z,13.23
2022-11-09T05:11:35.350Z,13.53
2022-11-09T05:13:38.019Z,14.67
2022-11-09T05:15:40.903Z,13.70
2022-11-09T05:17:44.172Z,14.80
2022-11-09T05:19:46.819Z,14.07
2022-11-09T05:21:50.813Z,13.90
2022-11-09T05:23:59.879Z,13.30
2022-11-09T05:26:02.512Z,13.00
2022-11-09T05:28:05.217Z,12.90
2022-11-09T05:30:08.991Z,13.10
2022-11-09T05:32:12.018Z,12.53
2022-11-09T05:34:15.108Z,13.27
2022-11-09T05:36:17.920Z,12.50
2022-11-09T05:38:21.920Z,12.90
2022-11-09T05:40:24.966Z,12.60
2022-11-09T05:42:27.612Z,13.07
2022-11-09T05:44:30.677Z,12.03
2022-11-09T05:46:34.193Z,12.97
2022-11-09T05:48:37.339Z,11.77
2022-11-09T05:50:41.161Z,12.47
2022-11-09T05:52:43.851Z,12.20
2022-11-09T05:54:47.821Z,11.03
2022-11-09T05:56:51.893Z,11.70
2022-11-09T05:58:54.564Z,12.10
2022-11-09T06:00:57.260Z,12.43
2022-11-09T06:03:03.214Z,10.97
2022-11-09T06:05:06.583Z,11.77
2022-11-09T06:07:09.335Z,11.50
2022-11-09T06:09:12.145Z,11.80
2022-11-09T06:11:23.045Z,10.77
2022-11-09T06:13:26.959Z,10.50
2022-11-09T06:15:29.807Z,11.60
2022-11-09T06:17:32.554Z,11.00
2022-11-09T06:19:35.708Z,11.40
2022-11-09T06:21:38.450Z,11.70
2022-11-09T06:23:41.089Z,10.90
2022-11-09T06:25:43.788Z,9.83
2022-11-09T06:27:49.255Z,12.53
2022-11-09T06:29:51.932Z,10.60
2022-11-09T06:31:54.667Z,10.23
2022-11-09T06:33:57.364Z,10.40
2022-11-09T06:36:00.110Z,11.00
2022-11-09T06:38:02.770Z,9.60
2022-11-09T06:40:06.117Z,10.20
2022-11-09T06:42:09.389Z,10.20
2022-11-09T06:44:14.588Z,10.33
2022-11-09T06:46:17.630Z,10.43
2022-11-09T06:48:20.414Z,9.43
2022-11-09T06:50:23.498Z,9.80
2022-11-09T06:52:26.205Z,10.00
2022-11-09T06:54:29.192Z,9.53
2022-11-09T06:56:31.865Z,9.80
2022-11-09T06:58:34.974Z,8.73
2022-11-09T07:00:38.997Z,10.10
2022-11-09T07:02:43.004Z,10.33
2022-11-09T07:04:45.662Z,10.47
2022-11-09T07:06:48.683Z,9.53
2022-11-09T07:08:51.376Z,10.10
2022-11-09T07:10:54.038Z,9.30
2022-11-09T07:12:58.024Z,9.47
2022-11-09T07:15:01.011Z,10.10
2022-11-09T07:17:04.986Z,9.70
2022-11-09T07:19:07.592Z,9.50
2022-11-09T07:21:14.372Z,9.90
2022-11-09T07:23:17.816Z,10.00
2022-11-09T07:25:21.077Z,9.27
2022-11-09T07:27:27.901Z,10.70
2022-11-09T07:29:30.923Z,10.50
2022-11-09T07:31:33.938Z,9.77
2022-11-09T07:33:37.853Z,9.63
2022-11-09T07:35:40.521Z,10.23
2022-11-09T07:37:43.202Z,9.33
2022-11-09T07:39:47.322Z,10.20
2022-11-09T07:41:52.992Z,9.70
2022-11-09T07:43:55.627Z,10.50
2022-11-09T07:45:58.341Z,10.53
2022-11-09T07:48:02.413Z,10.47
2022-11-09T07:50:07.051Z,9.70
2022-11-09T07:52:09.765Z,9.80
2022-11-09T07:54:12.424Z,9.10
2022-11-09T07:56:15.500Z,9.67
2022-11-09T07:58:18.153Z,9.80
2022-11-09T08:00:23.824Z,9.17
2022-11-09T08:02:26.866Z,9.43
2022-11-09T08:04:30.212Z,9.43
2022-11-09T08:06:34.425Z,9.20
2022-11-09T08:08:37.188Z,9.40
2022-11-09T08:10:39.961Z,10.00
2022-11-09T08:12:42.986Z,8.67
2022-11-09T08:14:45.621Z,8.83
2022-11-09T08:16:48.338Z,9.17
2022-11-09T08:18:51.040Z,9.97
2022-11-09T08:20:54.194Z,9.57
2022-11-09T08:23:02.546Z,9.20
2022-11-09T08:25:07.012Z,8.27
2022-11-09T08:27:09.766Z,8.93
2022-11-09T08:29:15.618Z,8.50
2022-11-09T08:31:18.280Z,9.87
2022-11-09T08:33:20.959Z,8.73
2022-11-09T08:35:24.565Z,8.83
2022-11-09T08:37:27.597Z,9.27
2022-11-09T08:39:31.595Z,8.43
2022-11-09T08:41:37.474Z,8.80
2022-11-09T08:43:43.221Z,9.23
2022-11-09T08:45:46.343Z,8.50
2022-11-09T08:47:49.067Z,9.00
2022-11-09T08:49:51.703Z,8.50
2022-11-09T08:51:54.786Z,9.97
2022-11-09T08:53:57.488Z,7.20
2022-11-09T08:56:01.513Z,8.13
2022-11-09T08:58:04.515Z,8.80
2022-11-09T09:00:08.492Z,8.07
2022-11-09T09:02:11.303Z,8.37
2022-11-09T09:04:14.085Z,7.77
2022-11-09T09:06:16.788Z,13.00
2022-11-09T09:08:23.225Z,8.77
2022-11-09T09:10:26.364Z,13.00
2022-11-09T09:12:30.358Z,8.90
2022-11-09T09:14:32.987Z,8.60
2022-11-09T09:16:37.138Z,8.27
2022-11-09T09:18:39.823Z,7.93
2022-11-09T09:20:42.788Z,9.23
2022-11-09T09:22:45.409Z,8.37
2022-11-09T09:24:48.467Z,8.73
2022-11-09T09:26:51.112Z,9.70
2022-11-09T09:28:55.055Z,8.37
2022-11-09T09:30:59.612Z,9.23
2022-11-09T09:33:02.800Z,9.13
2022-11-09T09:35:06.044Z,8.97
2022-11-09T09:37:08.678Z,7.53
2022-11-09T09:39:11.321Z,8.53
2022-11-09T09:41:37.187Z,8.90
2022-11-09T09:43:43.493Z,8.30
2022-11-09T09:45:55.864Z,10.63
2022-11-09T09:48:00.367Z,9.20
2022-11-09T09:50:05.327Z,9.10
2022-11-09T09:52:13.468Z,9.70
2022-11-09T09:54:18.296Z,8.70
2022-11-09T09:56:22.905Z,9.30
2022-11-09T09:58:26.847Z,8.40
2022-11-09T10:00:29.479Z,8.50
2022-11-09T10:02:36.412Z,10.63
2022-11-09T10:04:41.200Z,9.63
2022-11-09T10:06:59.030Z,9.90
2022-11-09T10:09:03.598Z,10.87
2022-11-09T10:11:13.793Z,11.50
2022-11-09T10:13:33.113Z,10.83
2022-11-09T10:15:37.643Z,11.27
2022-11-09T10:17:47.879Z,11.33
2022-11-09T10:19:57.623Z,10.90
2022-11-09T10:22:03.365Z,11.27
2022-11-09T10:24:11.596Z,11.03
2022-11-09T10:26:19.000Z,12.40
2022-11-09T10:28:24.625Z,10.87
2022-11-09T10:30:28.946Z,12.03
2022-11-09T10:32:32.563Z,11.30
2022-11-09T10:34:40.182Z,11.80
2022-11-09T10:36:45.100Z,12.20
2022-11-09T10:38:49.672Z,12.40
2022-11-09T10:40:55.336Z,12.30
2022-11-09T10:42:59.562Z,11.03
2022-11-09T10:45:12.057Z,11.83
2022-11-09T10:47:16.660Z,11.70
2022-11-09T10:49:20.618Z,11.97
2022-11-09T10:51:35.861Z,11.60
2022-11-09T10:53:38.538Z,11.07
2022-11-09T10:55:51.046Z,12.17
2022-11-09T10:57:55.567Z,11.87
2022-11-09T10:59:58.575Z,11.50
2022-11-09T11:02:02.524Z,11.70
2022-11-09T11:04:25.554Z,11.80
2022-11-09T11:06:31.483Z,11.70
2022-11-09T11:08:39.454Z,11.90
2022-11-09T11:10:42.098Z,12.60
2022-11-09T11:12:45.296Z,11.53
2022-11-09T11:14:48.053Z,11.80
2022-11-09T11:16:52.861Z,12.33
2022-11-09T11:18:55.872Z,12.27
2022-11-09T11:21:07.206Z,12.87
2022-11-09T11:23:14.063Z,11.80
2022-11-09T11:25:20.551Z,11.93
2022-11-09T11:27:25.027Z,13.00
2022-11-09T11:29:32.459Z,12.90
2022-11-09T11:31:35.104Z,13.30
2022-11-09T11:33:37.752Z,13.27
2022-11-09T11:35:43.018Z,12.57
2022-11-09T11:37:58.105Z,11.73
2022-11-09T11:40:03.145Z,12.40
2022-11-09T11:42:18.967Z,13.00
2022-11-09T11:44:31.426Z,13.53
2022-11-09T11:46:40.319Z,12.70
2022-11-09T11:48:56.696Z,13.90
2022-11-09T11:51:02.071Z,13.07
2022-11-09T11:53:10.749Z,12.50
2022-11-09T11:55:23.279Z,13.97
2022-11-09T11:57:41.970Z,14.77
2022-11-09T11:59:52.297Z,13.53
2022-11-09T12:02:05.041Z,14.37
2022-11-09T12:04:17.612Z,13.87
2022-11-09T12:06:29.552Z,13.93
2022-11-09T12:08:37.771Z,13.90
2022-11-09T12:10:47.378Z,13.30
2022-11-09T12:12:58.965Z,14.17
2022-11-09T12:15:14.889Z,15.43
2022-11-09T12:17:22.092Z,14.00
2022-11-09T12:19:36.062Z,13.83
2022-11-09T12:21:47.324Z,15.20
2022-11-09T12:24:05.350Z,14.60
2022-11-09T12:26:18.981Z,14.03
2022-11-09T12:28:43.146Z,12.53
2022-11-09T12:30:52.273Z,14.30
2022-11-09T12:32:56.208Z,14.27
2022-11-09T12:35:12.985Z,14.50
2022-11-09T12:37:17.688Z,14.60
2022-11-09T12:39:25.553Z,14.87
2022-11-09T12:41:30.671Z,15.37
2022-11-09T12:43:38.277Z,11.90
2022-11-09T12:45:41.895Z,14.07
2022-11-09T12:47:54.596Z,14.93
2022-11-09T12:49:57.813Z,16.13
2022-11-09T12:52:02.451Z,13.70
2022-11-09T12:54:11.342Z,14.10
2022-11-09T12:56:17.303Z,14.43
2022-11-09T12:58:24.205Z,15.50
2022-11-09T13:00:47.997Z,14.80
2022-11-09T13:02:54.534Z,14.97
2022-11-09T13:04:58.385Z,15.33
2022-11-09T13:07:18.147Z,14.63
2022-11-09T13:09:23.624Z,13.80
2022-11-09T13:11:35.001Z,13.80
2022-11-09T13:13:38.103Z,14.83
2022-11-09T13:15:40.897Z,15.57
2022-11-09T13:18:00.711Z,15.17
2022-11-09T13:20:03.336Z,14.50
2022-11-09T13:22:40.827Z,15.03
2022-11-09T13:24:50.945Z,16.77
2022-11-09T13:26:57.110Z,15.50
2022-11-09T13:29:22.365Z,15.70
2022-11-09T13:31:54.711Z,15.80
2022-11-09T13:34:18.253Z,15.30
2022-11-09T13:36:22.883Z,15.37
2022-11-09T13:38:26.117Z,15.43
2022-11-09T13:40:45.676Z,15.53
2022-11-09T13:42:56.826Z,14.90
2022-11-09T13:45:27.209Z,15.50
2022-11-09T13:47:36.734Z,14.80
2022-11-09T13:49:46.625Z,14.70
2022-11-09T13:51:49.338Z,15.77
2022-11-09T13:53:55.543Z,15.30
2022-11-09T13:56:03.102Z,15.63
2022-11-09T13:58:12.048Z,14.70
2022-11-09T14:00:19.620Z,14.97
2022-11-09T14:02:23.894Z,14.83
2022-11-09T14:04:28.174Z,15.50
2022-11-09T14:06:32.520Z,14.77
2022-11-09T14:08:40.749Z,14.60
2022-11-09T14:10:47.927Z,14.03
2022-11-09T14:12:55.802Z,14.50
2022-11-09T14:15:07.670Z,14.60
2022-11-09T14:17:12.284Z,14.80
2022-11-09T14:19:22.395Z,19.37
2022-11-09T14:21:36.126Z,16.17
2022-11-09T14:23:40.971Z,15.47
2022-11-09T14:25:43.688Z,15.23
2022-11-09T14:27:51.796Z,15.50
2022-11-09T14:29:55.555Z,14.97
2022-11-09T14:31:58.249Z,15.43
2022-11-09T14:34:02.019Z,14.00
2022-11-09T14:36:05.784Z,15.03
2022-11-09T14:38:18.341Z,14.27
2022-11-09T14:40:23.920Z,14.27
2022-11-09T14:42:27.257Z,15.17
2022-11-09T14:44:32.282Z,14.40
2022-11-09T14:46:34.915Z,16.20
2022-11-09T14:48:40.844Z,15.97
2022-11-09T14:50:47.490Z,15.90
2022-11-09T14:52:50.924Z,14.47
2022-11-09T14:54:55.984Z,15.03
2022-11-09T14:56:58.674Z,14.50
2022-11-09T14:59:02.245Z,16.57
2022-11-09T15:01:08.726Z,15.10
2022-11-09T15:03:24.306Z,17.20
2022-11-09T15:05:32.883Z,16.20
2022-11-09T15:07:35.698Z,16.57
2022-11-09T15:09:54.000Z,15.83
2022-11-09T15:11:57.936Z,16.17
2022-11-09T15:14:00.902Z,15.87
2022-11-09T15:16:03.570Z,16.17
2022-11-09T15:18:06.607Z,15.40
2022-11-09T15:20:27.281Z,16.13
2022-11-09T15:22:42.139Z,14.80
2022-11-09T15:24:47.444Z,14.70
2022-11-09T15:26:50.836Z,13.37
2022-11-09T15:28:54.825Z,14.90
2022-11-09T15:31:15.543Z,13.93
2022-11-09T15:33:21.283Z,14.50
2022-11-09T15:35:30.243Z,14.67
2022-11-09T15:37:47.442Z,14.37
2022-11-09T15:39:50.112Z,14.47
2022-11-09T15:41:52.783Z,13.90
2022-11-09T15:43:59.250Z,13.63
2022-11-09T15:46:02.003Z,13.33
2022-11-09T15:48:07.700Z,14.03
2022-11-09T15:50:16.673Z,14.27
2022-11-09T15:52:19.406Z,13.50
2022-11-09T15:54:22.127Z,13.33
2022-11-09T15:56:25.517Z,12.80
2022-11-09T15:58:28.430Z,13.63
2022-11-09T16:00:32.436Z,13.20
2022-11-09T16:02:35.085Z,13.47
2022-11-09T16:04:40.082Z,1.83
2022-11-09T16:06:46.506Z,13.13
2022-11-09T16:08:49.799Z,12.17
2022-11-09T16:10:52.461Z,11.60
2022-11-09T16:12:56.039Z,12.20
2022-11-09T16:14:58.987Z,11.20
2022-11-09T16:17:02.943Z,13.30
2022-11-09T16:19:05.625Z,12.83
2022-11-09T16:21:09.355Z,13.57
2022-11-09T16:23:12.288Z,12.50
2022-11-09T16:25:15.203Z,11.40
2022-11-09T16:27:47.827Z,13.47
2022-11-09T16:29:43.491Z,33.00
2022-11-09T16:31:51.832Z,22.50
2022-11-09T16:33:56.454Z,19.30
2022-11-09T16:36:00.680Z,25.03
2022-11-09T16:38:03.507Z,49.83
2022-11-09T16:40:07.437Z,26.37
2022-11-09T16:42:10.999Z,18.70
2022-11-09T16:44:13.908Z,13.93
2022-11-09T16:46:20.441Z,15.57
2022-11-09T16:48:23.343Z,20.23
2022-11-09T16:50:28.388Z,17.80
2022-11-09T16:52:31.213Z,15.93
2022-11-09T16:54:34.371Z,14.20
2022-11-09T16:56:37.022Z,13.87
2022-11-09T16:58:39.650Z,13.47
2022-11-09T17:01:08.747Z,13.67
2022-11-09T17:03:07.649Z,19.17
2022-11-09T17:05:10.404Z,20.97
2022-11-09T17:07:14.397Z,16.37
2022-11-09T17:09:17.581Z,16.00
2022-11-09T17:11:20.494Z,15.70
2022-11-09T17:13:23.161Z,17.00
2022-11-09T17:15:26.068Z,16.43
2022-11-09T17:17:28.815Z,15.23
2022-11-09T17:19:32.139Z,21.77
2022-11-09T17:21:34.807Z,18.67
2022-11-09T17:23:39.232Z,18.60
2022-11-09T17:25:42.912Z,18.13
2022-11-09T17:27:45.611Z,17.60
2022-11-09T17:29:48.463Z,18.63
2022-11-09T17:31:51.819Z,17.17
2022-11-09T17:33:59.831Z,22.00
2022-11-09T17:36:05.420Z,17.00
2022-11-09T17:38:08.321Z,16.83
2022-11-09T17:40:40.660Z,17.23
2022-11-09T17:42:43.328Z,23.80
2022-11-09T17:44:46.063Z,23.77
2022-11-09T17:46:49.166Z,25.77
2022-11-09T17:48:52.246Z,21.73
2022-11-09T17:50:54.923Z,21.87
2022-11-09T17:52:57.857Z,30.23
2022-11-09T17:55:00.486Z,20.53
2022-11-09T17:57:04.953Z,21.00
2022-11-09T17:59:08.011Z,18.90
2022-11-09T18:01:11.590Z,19.77
2022-11-09T18:03:14.288Z,19.27
2022-11-09T18:05:16.934Z,18.27
2022-11-09T18:07:19.818Z,18.27
2022-11-09T18:11:46.902Z,17.57
2022-11-09T18:13:50.890Z,18.10
2022-11-09T18:15:53.512Z,17.67
2022-11-09T18:18:02.569Z,18.70
2022-11-09T18:20:05.951Z,17.43
2022-11-09T18:22:12.479Z,18.20
2022-11-09T18:24:15.671Z,19.93
2022-11-09T18:26:19.727Z,19.80
2022-11-09T18:28:23.022Z,18.30
2022-11-09T18:30:27.085Z,18.87
2022-11-09T18:32:32.459Z,19.23
2022-11-09T18:34:35.139Z,18.67
2022-11-09T18:36:37.837Z,18.00
2022-11-09T18:38:40.523Z,19.17
2022-11-09T18:40:49.523Z,19.37
2022-11-09T18:42:52.183Z,19.83
2022-11-09T18:44:55.032Z,19.43
2022-11-09T18:47:04.810Z,19.40
2022-11-09T18:49:13.884Z,19.93
2022-11-09T18:51:17.098Z,18.77
2022-11-09T18:53:20.556Z,19.00
2022-11-09T18:55:23.868Z,19.10
2022-11-09T18:57:26.575Z,18.90
2022-11-09T18:59:29.203Z,18.97
2022-11-09T19:01:33.386Z,18.47
2022-11-09T19:03:37.349Z,18.73
2022-11-09T19:05:40.426Z,18.40
2022-11-09T19:07:43.112Z,18.90
2022-11-09T19:09:45.621Z,18.37
2022-11-09T19:11:48.565Z,20.00
2022-11-09T19:13:51.206Z,18.20
2022-11-09T19:15:58.156Z,18.53
2022-11-09T19:18:01.715Z,20.10
2022-11-09T19:20:06.224Z,19.23
2022-11-09T19:22:13.849Z,19.10
2022-11-09T19:24:19.218Z,19.77
2022-11-09T19:26:21.885Z,19.40
2022-11-09T19:28:24.527Z,20.17
2022-11-09T19:30:27.179Z,19.90
2022-11-09T19:32:30.133Z,19.70
2022-11-09T19:34:33.071Z,19.80
2022-11-09T19:36:37.016Z,19.70
2022-11-09T19:38:41.846Z,19.17
2022-11-09T19:40:44.938Z,18.87
2022-11-09T19:42:52.948Z,19.73
2022-11-09T19:44:57.792Z,20.30
2022-11-09T19:47:00.424Z,19.30
2022-11-09T19:49:03.689Z,19.43
2022-11-09T19:51:06.724Z,18.93
2022-11-09T19:53:10.660Z,18.67
2022-11-09T19:55:13.285Z,18.73
2022-11-09T19:57:19.496Z,18.60
2022-11-09T19:59:22.675Z,18.13
2022-11-09T20:01:25.912Z,18.33
2022-11-09T20:03:28.553Z,19.00
2022-11-09T20:05:36.570Z,18.70
2022-11-09T20:07:39.210Z,19.20
2022-11-09T20:09:43.119Z,18.70
2022-11-09T20:11:57.014Z,17.53
2022-11-09T20:13:59.661Z,18.53
2022-11-09T20:16:03.191Z,17.93
2022-11-09T20:18:05.916Z,17.57
2022-11-09T20:20:09.968Z,17.77
2022-11-09T20:22:12.635Z,17.10
2022-11-09T20:24:15.311Z,16.90
2022-11-09T20:26:19.616Z,17.67
2022-11-09T20:28:24.051Z,18.63
2022-11-09T20:30:26.791Z,16.93
2022-11-09T20:32:29.476Z,16.90
2022-11-09T20:34:32.429Z,17.50
2022-11-09T20:36:35.715Z,17.27
2022-11-09T20:38:38.358Z,17.00
2022-11-09T20:40:41.358Z,16.07
2022-11-09T20:42:45.328Z,17.10
2022-11-09T20:44:47.962Z,16.83
2022-11-09T20:46:50.611Z,16.30
2022-11-09T20:48:55.292Z,15.70
2022-11-09T20:51:03.909Z,16.47
2022-11-09T20:53:06.650Z,15.83
2022-11-09T20:55:11.304Z,16.37
2022-11-09T20:57:13.973Z,17.30
2022-11-09T20:59:17.934Z,17.03
2022-11-09T21:01:22.057Z,16.70
2022-11-09T21:03:26.896Z,16.50
2022-11-09T21:05:29.600Z,16.60
2022-11-09T21:07:32.286Z,17.37
2022-11-09T21:09:34.978Z,16.37
2022-11-09T21:11:57.945Z,15.80
2022-11-09T21:14:00.643Z,16.47
2022-11-09T21:16:08.331Z,16.03
2022-11-09T21:18:11.629Z,16.00
2022-11-09T21:20:15.468Z,16.67
2022-11-09T21:22:18.109Z,15.77
2022-11-09T21:24:31.713Z,14.77
2022-11-09T21:26:46.743Z,15.93
2022-11-09T21:29:00.316Z,15.30
2022-11-09T21:31:03.146Z,15.03
2022-11-09T21:33:07.194Z,15.50
2022-11-09T21:35:11.233Z,15.70
2022-11-09T21:37:15.541Z,15.03
2022-11-09T21:39:18.189Z,15.10
2022-11-09T21:41:31.863Z,14.47
2022-11-09T21:43:34.542Z,15.23
2022-11-09T21:45:37.170Z,15.23
2022-11-09T21:47:39.816Z,14.80
2022-11-09T21:49:44.500Z,14.23
2022-11-09T21:51:47.655Z,14.93
2022-11-09T21:53:50.359Z,15.03
2022-11-09T21:55:53.360Z,14.97
2022-11-09T21:57:56.437Z,13.63
2022-11-09T21:59:59.143Z,14.60
2022-11-09T22:02:01.825Z,15.20
2022-11-09T22:04:04.519Z,13.97
2022-11-09T22:06:08.597Z,14.07
2022-11-09T22:08:11.293Z,14.30
2022-11-09T22:10:13.895Z,13.30
2022-11-09T22:12:29.627Z,13.60
2022-11-09T22:14:43.290Z,12.30
2022-11-09T22:16:45.943Z,13.60
2022-11-09T22:19:00.054Z,13.43
2022-11-09T22:21:02.739Z,12.30
2022-11-09T22:23:07.357Z,13.70
2022-11-09T22:25:12.840Z,14.10
2022-11-09T22:27:15.857Z,13.47
2022-11-09T22:29:18.628Z,13.13
2022-11-09T22:31:21.249Z,13.13
2022-11-09T22:33:27.304Z,13.80
2022-11-09T22:35:30.714Z,12.20
2022-11-09T22:37:33.352Z,13.60
2022-11-09T22:39:40.702Z,12.83
2022-11-09T22:41:47.099Z,14.17
2022-11-09T22:43:50.187Z,12.90
2022-11-09T22:45:52.861Z,12.97
2022-11-09T22:47:55.662Z,12.70
2022-11-09T22:49:58.273Z,13.67
2022-11-09T22:52:01.350Z,13.60
2022-11-09T22:54:04.675Z,12.90
2022-11-09T22:56:10.084Z,13.47
2022-11-09T22:58:12.704Z,13.37
2022-11-09T23:00:17.236Z,12.67
2022-11-09T23:02:19.894Z,12.30
2022-11-09T23:04:22.702Z,12.40
2022-11-09T23:06:26.096Z,12.43
2022-11-09T23:08:33.081Z,12.63
2022-11-09T23:10:39.421Z,12.63
2022-11-09T23:12:43.492Z,12.33
2022-11-09T23:14:58.959Z,12.13
2022-11-09T23:17:24.914Z,13.00
2022-11-09T23:19:27.890Z,11.93
2022-11-09T23:21:31.250Z,11.83
2022-11-09T23:23:34.903Z,12.20
2022-11-09T23:25:48.837Z,12.40
2022-11-09T23:27:52.941Z,11.40
2022-11-09T23:29:58.996Z,12.63
2022-11-09T23:32:02.379Z,12.40
2022-11-09T23:34:09.886Z,11.70
2022-11-09T23:36:12.963Z,11.50
2022-11-09T23:38:15.655Z,10.93
2022-11-09T23:40:20.453Z,10.97
2022-11-09T23:42:23.166Z,11.57
2022-11-09T23:44:27.102Z,13.30
2022-11-09T23:46:29.852Z,11.10
2022-11-09T23:48:33.373Z,11.40
2022-11-09T23:50:36.024Z,11.20
2022-11-09T23:52:39.053Z,11.77
2022-11-09T23:54:42.139Z,11.00
2022-11-09T23:56:46.950Z,10.80
2022-11-09T23:58:51.727Z,11.37
